ADDS TAF Data INFO
IDs: Format: Raw Decoded Include METARs

Data at: 1934 UTC 17 Jul 2018

KTUS 171853Z VRB03G16KT 10SM CLR 34/16 A3005 RMK AO2 SLP122 T03440156

KTUS 171732Z 1718/1818 13005KT P6SM FEW080
  FM172200 32008KT P6SM SCT080 BKN140
  FM180100 18012KT P6SM SCT080 BKN120
  FM180600 14007KT P6SM FEW090 SCT140
  FM181600 VRB04KT P6SM FEW080